Nearby METAR Reports

 

KMHT - Manchester, New Hampshire, USA
Distance from station: W 16mi, 26km
Updated: Sun, 18-Nov-2018 4:53am EST
Overcast
Overcast
 Wind from NNW
Wind: NNW 8 mph , 13 km/h
Temperature: 36°F , 2°C
Wind Chill: 30°F , -1°C
Dew Point: 25°F , -4°C
Humidity: 65%
Barometer: 30.28 inHg , 1025.4 hPa
Clouds: Overcast
Visibility: 10 miles , 16 km
Cloud details: Overcast 4800 ft
2018/11/18 09:53 KMHT 180953Z 33007KT 10SM OVC048 02/M04 A3028 RMK AO2 SLP271 T00171039
KPSM - Portsmouth/Pease, New Hampshire, USA
Distance from station: ENE 17mi, 27km
Updated: Sun, 18-Nov-2018 4:56am EST
Partly cloudy
Partly cloudy
 Wind from NW
Wind: NW 9 mph , 15 km/h
Temperature: 32°F , 0°C
Wind Chill: 24°F , -4°C
Dew Point: 23°F , -5°C
Humidity: 69%
Barometer: 30.27 inHg , 1025.1 hPa
Clouds: Partly cloudy
Visibility: 10 miles , 16 km
Cloud details: Partly cloudy 5000 ft
2018/11/18 09:56 KPSM 180956Z 31008KT 10SM SCT050 00/M05 A3027 RMK AO2A SLP254 T00021052
 
KASH - Nashua/Boire Fld, New Hampshire, USA
Distance from station: WSW 24mi, 38km
Updated: Sun, 18-Nov-2018 4:56am EST
Overcast
Overcast
 Wind from NNW
Wind: NNW 6 mph , 9 km/h
Temperature: 36°F , 2°C
Wind Chill: 31°F , -1°C
Dew Point: 27°F , -3°C
Humidity: 70%
Barometer: 30.30 inHg , 1026.1 hPa
Clouds: Overcast
Visibility: 10 miles , 16 km
Cloud details: Overcast 3600 ft
2018/11/18 09:56 KASH 180956Z AUTO 33005KT 10SM OVC036 02/M03 A3030 RMK AO2 SLP273 T00171033
KDAW - Rochester, New Hampshire, USA
Distance from station: NNE 24mi, 39km
Updated: Sun, 18-Nov-2018 4:51am EST
Clear
Clear
 Wind from NW
Wind: NW 9 mph , 15 km/h
Temperature: 30°F , -1°C
Wind Chill: 22°F , -6°C
Dew Point: 21°F , -6°C
Humidity: 69%
Barometer: 30.28 inHg , 1025.4 hPa
Clouds: Clear
Visibility: 10 miles , 16 km
2018/11/18 09:51 KDAW 180951Z AUTO 32008KT 10SM CLR M01/M06 A3028 RMK AO2 SLP255 T10111056